หน้าหลัก
METAR-TAF:

METAR-TAF

ท่าอากาศยาน :

Rundu, นามิเบีย

ละติจูด: 17-57-20S, ลองจิจูด: 019-43-25E, ความสูง: 1106 ม.

การสังเกตสภาพอากาศปัจจุบัน

รายงานได้ทำขึ้นเมื่อ 43 นาทีที่แล้ว ณ เวลา 10:00 UTC
ลม 12 นอตจากตะวันออก
อุณหภูมิ 28°C
ความชื้น 12%
ความกดอากาศ 1026 hPa

METAR: FYRU 181000Z AUTO 10012KT //// // ////// 28/M04 Q1026

เวลา: 12:43 (10:43 UTC)

การพยากรณ์

รายงานได้ทำขึ้นเมื่อ 2 ชั่วโมงและ 43 นาทีที่แล้ว ณ เวลา 08:00 UTC
การพยากรณ์มีผลตั้งแต่วันที่ 18 ณ เวลา 09 UTC จนถึงวันที่ 18 ณ เวลา 18 UTC
ลม 5 นอตจากตะวันออกเฉียงใต้
ทัศนวิสัย 10 กม. หรือมากกว่า
ไม่มีเมฆต่ำกว่า 1,500 ม. และไม่มีเมฆคิวมูโลนิมบัส
กำลังกลายเป็น
ตั้งแต่วันที่ 18 ณ เวลา 10 UTC จนถึงวันที่ 18 ณ เวลา 12 UTC
ลม 10 นอตจากตะวันออกโดยมีลมกระโชกได้ถึง20 นอต

TAF: FYRU 180800Z 1809/1818 14005KT CAVOK BECMG 1810/1812 09010G20KT

สังเกตการณ์สภาพอากาศและพยากรณ์อากาศของสนามบินมากกว่า 4000 แห่ง (รายงาน METAR และ TAF).

สถานีที่ดูได้จะแสดงไว้ด้วยจุดสีเหลืองและสีแดงบนแผนที่.

เลื่อนเมาส์ไปเหนือจุดเพื่อดูชื่อสถานี.

แล้วคลิกเพื่อดูสังเกตการณ์และการพยากรณ์สภาพอากาศ.

ในการเปลี่ยนแผนที่: คลิกที่ปุ่มสีเขียวที่มีกากบาทสีดำเพื่อซูมเข้า; ที่ปุ่มสีเขียวที่มีขีดเพื่อซูมออก; หรือที่ลูกศรสีเขียวเพื่อไปยังแผนที่ที่อยู่ติดกัน.


METAR-TAF: